Time;durP1;ratioP1;P1;durP2;ratioP2;P2;SDS_P1;SDS_P2;PMS_P1;PMS_P2;Temp;Humidity;BMP_temperature;BMP_pressure;BME280_temperature;BME280_humidity;BME280_pressure;Samples;Min_cycle;Max_cycle;Signal;HPM_P1;HPM_P2
2022/01/08 13:30:53;;;;;;;0.65;0.65;;;;;;;;;;5104488;27;20105;-61
2022/01/08 13:33:25;;;;;;;0.75;0.75;;;;;;;;;;5105757;28;20030;-62
2022/01/08 13:36:03;;;;;;;0.00;0.00;;;;;;;;;;5103181;28;20035;-60
2022/01/08 13:38:32;;;;;;;0.00;0.00;;;;;;;;;;5105680;28;20488;-63
2022/01/08 13:40:57;;;;;;;;;;;;;;;;;;5106164;28;20729;-63
2022/01/08 13:43:24;;;;;;;0.00;0.00;;;;;;;;;;5105705;28;20467;-61
2022/01/08 13:45:53;;;;;;;0.38;0.38;;;;;;;;;;5104720;28;20023;-61
2022/01/08 13:48:19;;;;;;;0.10;0.10;;;;;;;;;;5106248;28;20023;-61
2022/01/08 13:50:48;;;;;;;0.45;0.45;;;;;;;;;;5105756;28;20043;-62
2022/01/08 13:53:14;;;;;;;0.15;0.15;;;;;;;;;;5106025;28;20368;-61
2022/01/08 13:55:46;;;;;;;4.18;2.20;;;;;;;;;;5105920;28;20024;-62
2022/01/08 13:58:12;;;;;;;0.80;0.80;;;;;;;;;;5105671;28;20132;-61
2022/01/08 14:00:38;;;;;;;0.52;0.52;;;;;;;;;;5105458;28;20451;-62
2022/01/08 14:03:15;;;;;;;0.00;0.00;;;;;;;;;;5105708;28;20102;-61
2022/01/08 14:05:41;;;;;;;0.00;0.00;;;;;;;;;;5104280;28;20023;-62
2022/01/08 14:08:07;;;;;;;0.10;0.10;;;;;;;;;;5104663;28;20138;-61
2022/01/08 14:10:40;;;;;;;0.10;0.10;;;;;;;;;;5105439;28;20035;-62
2022/01/08 14:13:10;;;;;;;0.15;0.15;;;;;;;;;;5104864;28;20024;-60
2022/01/08 14:15:35;;;;;;;0.70;0.70;;;;;;;;;;5105226;28;20020;-59
2022/01/08 14:18:08;;;;;;;0.40;0.40;;;;;;;;;;5105477;28;20031;-64
2022/01/08 14:20:33;;;;;;;0.20;0.20;;;;;;;;;;5104950;28;20107;-62
2022/01/08 14:23:12;;;;;;;1.00;1.00;;;;;;;;;;5105549;28;20504;-62
2022/01/08 14:25:37;;;;;;;0.00;0.00;;;;;;;;;;5105215;28;20020;-62
2022/01/08 14:28:15;;;;;;;0.00;0.00;;;;;;;;;;5105640;28;20016;-63
2022/01/08 14:30:40;;;;;;;0.00;0.00;;;;;;;;;;5104398;28;20059;-63
2022/01/08 14:33:05;;;;;;;0.30;0.30;;;;;;;;;;5103852;28;20023;-63
2022/01/08 14:35:30;;;;;;;0.30;0.30;;;;;;;;;;5103468;28;20027;-62
2022/01/08 14:38:00;;;;;;;0.20;0.20;;;;;;;;;;5102804;28;20385;-60
2022/01/08 14:40:28;;;;;;;0.35;0.35;;;;;;;;;;5100393;28;20020;-61
2022/01/08 14:42:56;;;;;;;3.38;3.17;;;;;;;;;;5090584;28;20012;-61
2022/01/08 14:45:22;;;;;;;1.67;1.23;;;;;;;;;;5090595;28;20023;-61
2022/01/08 14:47:47;;;;;;;0.60;0.60;;;;;;;;;;5090032;28;20091;-62
2022/01/08 14:50:16;;;;;;;0.13;0.13;;;;;;;;;;5090653;28;20610;-60
2022/01/08 14:52:42;;;;;;;0.35;0.30;;;;;;;;;;5090075;28;20028;-61
2022/01/08 14:55:10;;;;;;;7.57;0.75;;;;;;;;;;5090382;28;20088;-61
2022/01/08 14:57:35;;;;;;;0.20;0.15;;;;;;;;;;5089983;28;20043;-60
2022/01/08 15:00:01;;;;;;;0.68;0.68;;;;;;;;;;5089985;28;20036;-61
2022/01/08 15:02:27;;;;;;;0.00;0.00;;;;;;;;;;5089188;28;20073;-61
2022/01/08 15:04:52;;;;;;;1.55;0.75;;;;;;;;;;5091347;28;20028;-62
2022/01/08 15:07:17;;;;;;;0.08;0.08;;;;;;;;;;5091279;28;20069;-62
2022/01/08 15:09:43;;;;;;;1.20;0.08;;;;;;;;;;5090885;28;20070;-61
2022/01/08 15:12:08;;;;;;;7.97;1.77;;;;;;;;;;5090676;28;20031;-61
2022/01/08 15:14:34;;;;;;;0.38;0.38;;;;;;;;;;5090365;28;20569;-60
2022/01/08 15:17:00;;;;;;;0.00;0.00;;;;;;;;;;5091296;28;20023;-61
2022/01/08 15:19:25;;;;;;;0.30;0.30;;;;;;;;;;5090886;28;20022;-62
2022/01/08 15:21:51;;;;;;;0.00;0.00;;;;;;;;;;5090512;28;20477;-71
2022/01/08 15:24:17;;;;;;;5.57;1.23;;;;;;;;;;5091335;28;20503;-60
2022/01/08 15:26:42;;;;;;;10.13;1.38;;;;;;;;;;5089021;28;20043;-63
2022/01/08 15:29:07;;;;;;;0.00;0.00;;;;;;;;;;5089541;28;20389;-64
2022/01/08 15:31:32;;;;;;;0.00;0.00;;;;;;;;;;5088296;28;20031;-62
2022/01/08 15:33:58;;;;;;;1.88;1.75;;;;;;;;;;5090711;28;20387;-65
2022/01/08 15:36:23;;;;;;;0.15;0.15;;;;;;;;;;5091035;28;20078;-64
2022/01/08 15:38:48;;;;;;;0.00;0.00;;;;;;;;;;5090433;28;20032;-62
2022/01/08 15:41:14;;;;;;;0.20;0.20;;;;;;;;;;5091214;28;20020;-63
2022/01/08 15:43:39;;;;;;;0.57;0.57;;;;;;;;;;5090089;28;20040;-62
2022/01/08 15:46:04;;;;;;;1.13;1.13;;;;;;;;;;5090215;28;20025;-65
2022/01/08 15:48:30;;;;;;;2.85;1.80;;;;;;;;;;5088655;28;20465;-64
2022/01/08 15:50:55;;;;;;;0.77;0.73;;;;;;;;;;5090186;28;20020;-67
2022/01/08 15:53:21;;;;;;;0.95;0.95;;;;;;;;;;5089403;28;20135;-62
2022/01/08 15:55:46;;;;;;;3.30;2.75;;;;;;;;;;5089714;28;20031;-61
2022/01/08 15:58:12;;;;;;;1.33;1.33;;;;;;;;;;5090146;28;20457;-60
2022/01/08 16:00:37;;;;;;;1.50;1.40;;;;;;;;;;5088108;28;20032;-63
2022/01/08 16:03:02;;;;;;;0.90;0.90;;;;;;;;;;5090220;28;20016;-62
2022/01/08 16:05:48;;;;;;;1.15;1.13;;;;;;;;;;5089718;28;20031;-61
2022/01/08 16:08:13;;;;;;;10.43;1.05;;;;;;;;;;5089286;28;20035;-65
2022/01/08 16:10:39;;;;;;;0.73;0.73;;;;;;;;;;5089491;28;20024;-62
2022/01/08 16:13:04;;;;;;;1.70;1.67;;;;;;;;;;5088475;28;20079;-63
2022/01/08 16:15:29;;;;;;;0.40;0.40;;;;;;;;;;5089981;28;20030;-62
2022/01/08 16:17:54;;;;;;;0.55;0.43;;;;;;;;;;5090084;28;20062;-61
2022/01/08 16:20:20;;;;;;;0.45;0.45;;;;;;;;;;5089931;28;20077;-62
2022/01/08 16:22:45;;;;;;;0.35;0.35;;;;;;;;;;5089507;28;20020;-62
2022/01/08 16:25:10;;;;;;;2.17;0.80;;;;;;;;;;5089919;28;20073;-61
2022/01/08 16:27:36;;;;;;;0.47;0.47;;;;;;;;;;5087855;28;20512;-62
2022/01/08 16:30:02;;;;;;;0.52;0.52;;;;;;;;;;5089383;28;20052;-62
2022/01/08 16:32:28;;;;;;;0.05;0.05;;;;;;;;;;5089730;28;20024;-62
2022/01/08 16:34:53;;;;;;;0.00;0.00;;;;;;;;;;5089798;28;20575;-62
2022/01/08 16:37:18;;;;;;;0.35;0.32;;;;;;;;;;5089686;28;20027;-61
2022/01/08 16:39:44;;;;;;;0.00;0.00;;;;;;;;;;5089485;28;20080;-61
2022/01/08 16:42:09;;;;;;;6.70;3.38;;;;;;;;;;5089735;28;20031;-62
2022/01/08 16:44:35;;;;;;;0.60;0.60;;;;;;;;;;5089113;28;20099;-61
2022/01/08 16:47:00;;;;;;;0.10;0.10;;;;;;;;;;5089635;28;20020;-62
2022/01/08 16:49:25;;;;;;;0.10;0.10;;;;;;;;;;5089776;28;20086;-61
2022/01/08 16:51:51;;;;;;;0.75;0.75;;;;;;;;;;5088899;28;20030;-62
2022/01/08 16:54:17;;;;;;;0.30;0.17;;;;;;;;;;5089372;28;20016;-60
2022/01/08 16:56:43;;;;;;;0.43;0.43;;;;;;;;;;5087602;28;20111;-62
2022/01/08 16:59:08;;;;;;;0.08;0.08;;;;;;;;;;5088838;28;20192;-60
2022/01/08 17:01:33;;;;;;;0.10;0.10;;;;;;;;;;5088859;28;20020;-61
2022/01/08 17:03:58;;;;;;;0.20;0.20;;;;;;;;;;5088834;28;20016;-62
2022/01/08 17:06:24;;;;;;;0.20;0.20;;;;;;;;;;5089172;28;20376;-59
2022/01/08 17:08:49;;;;;;;0.00;0.00;;;;;;;;;;5087771;28;20069;-60
2022/01/08 17:11:18;;;;;;;0.10;0.10;;;;;;;;;;5089332;28;20819;-60
2022/01/08 17:13:43;;;;;;;1.13;0.97;;;;;;;;;;5087889;28;20024;-63
2022/01/08 17:16:09;;;;;;;0.93;0.93;;;;;;;;;;5088922;28;20257;-61
2022/01/08 17:18:34;;;;;;;0.32;0.32;;;;;;;;;;5088391;28;20043;-61
2022/01/08 17:21:00;;;;;;;0.25;0.25;;;;;;;;;;5088824;28;20452;-60
2022/01/08 17:23:25;;;;;;;0.25;0.25;;;;;;;;;;5089298;28;20027;-61
2022/01/08 17:25:51;;;;;;;1.27;1.17;;;;;;;;;;5086018;28;20043;-59
2022/01/08 17:28:17;;;;;;;0.00;0.00;;;;;;;;;;5088761;28;20028;-59
2022/01/08 17:30:42;;;;;;;1.23;0.68;;;;;;;;;;5088212;28;20048;-59
2022/01/08 17:33:07;;;;;;;0.93;0.93;;;;;;;;;;5090998;28;20028;-59
2022/01/08 17:35:33;;;;;;;1.35;0.63;;;;;;;;;;5090004;28;20119;-59
2022/01/08 17:37:58;;;;;;;0.30;0.30;;;;;;;;;;5087075;28;20031;-63
2022/01/08 17:40:24;;;;;;;1.13;1.02;;;;;;;;;;5088667;28;20027;-62
2022/01/08 17:42:49;;;;;;;0.75;0.75;;;;;;;;;;5088158;28;20020;-64
2022/01/08 17:45:14;;;;;;;0.10;0.10;;;;;;;;;;5088199;28;20016;-64
2022/01/08 17:47:40;;;;;;;0.55;0.55;;;;;;;;;;5087941;28;20027;-62
2022/01/08 17:50:06;;;;;;;0.00;0.00;;;;;;;;;;5088614;28;20441;-65
2022/01/08 17:52:32;;;;;;;0.03;0.03;;;;;;;;;;5088635;28;20024;-63
2022/01/08 17:54:57;;;;;;;0.00;0.00;;;;;;;;;;5087104;28;20041;-63
2022/01/08 17:57:25;;;;;;;0.82;0.68;;;;;;;;;;5088583;28;20431;-60
2022/01/08 17:59:50;;;;;;;0.32;0.32;;;;;;;;;;5088209;28;20086;-59
2022/01/08 18:02:16;;;;;;;0.68;0.68;;;;;;;;;;5087349;28;20091;-60
2022/01/08 18:04:41;;;;;;;0.03;0.03;;;;;;;;;;5087010;28;20139;-60
2022/01/08 18:07:18;;;;;;;0.35;0.35;;;;;;;;;;5087847;28;20020;-60
2022/01/08 18:09:44;;;;;;;1.75;1.55;;;;;;;;;;5085842;28;20489;-60
2022/01/08 18:12:10;;;;;;;0.20;0.20;;;;;;;;;;5088199;28;20023;-60
2022/01/08 18:14:36;;;;;;;3.47;1.85;;;;;;;;;;5087519;28;20024;-60
2022/01/08 18:17:01;;;;;;;0.00;0.00;;;;;;;;;;5091243;28;20358;-60
2022/01/08 18:19:27;;;;;;;0.38;0.38;;;;;;;;;;5091073;28;20020;-60
2022/01/08 18:21:52;;;;;;;0.03;0.03;;;;;;;;;;5093016;28;20016;-60
2022/01/08 18:24:17;;;;;;;0.10;0.10;;;;;;;;;;5090868;28;20024;-60
2022/01/08 18:26:42;;;;;;;0.00;0.00;;;;;;;;;;5091682;28;20028;-59
2022/01/08 18:29:08;;;;;;;2.05;1.95;;;;;;;;;;5090326;28;20056;-59
2022/01/08 18:31:33;;;;;;;1.35;1.30;;;;;;;;;;5092004;28;20020;-59
2022/01/08 18:33:59;;;;;;;0.00;0.00;;;;;;;;;;5090278;28;20066;-59
2022/01/08 18:36:24;;;;;;;1.77;1.67;;;;;;;;;;5091823;28;20133;-60
2022/01/08 18:38:49;;;;;;;1.90;1.80;;;;;;;;;;5091311;28;20396;-59
2022/01/08 18:41:15;;;;;;;5.70;1.70;;;;;;;;;;5091742;28;20043;-59
2022/01/08 18:43:40;;;;;;;1.27;1.08;;;;;;;;;;5090825;28;20403;-60
2022/01/08 18:46:05;;;;;;;1.20;1.20;;;;;;;;;;5091463;28;20023;-59
2022/01/08 18:48:34;;;;;;;2.17;2.08;;;;;;;;;;5092076;28;20388;-59
2022/01/08 18:50:59;;;;;;;1.27;1.17;;;;;;;;;;5090282;28;20020;-60
2022/01/08 18:53:25;;;;;;;1.13;1.13;;;;;;;;;;5089598;28;20373;-60
2022/01/08 18:55:50;;;;;;;1.52;1.42;;;;;;;;;;5092166;28;20023;-60
2022/01/08 18:58:15;;;;;;;0.50;0.45;;;;;;;;;;5091744;28;20051;-60
2022/01/08 19:00:40;;;;;;;0.05;0.05;;;;;;;;;;5091054;28;20079;-59
2022/01/08 19:03:06;;;;;;;0.32;0.32;;;;;;;;;;5091023;28;20031;-59
2022/01/08 19:05:31;;;;;;;0.00;0.00;;;;;;;;;;5091519;28;20020;-59
2022/01/08 19:07:57;;;;;;;0.90;0.90;;;;;;;;;;5091069;28;20095;-59
2022/01/08 19:10:22;;;;;;;1.40;1.35;;;;;;;;;;5091217;28;20023;-58
2022/01/08 19:12:48;;;;;;;0.40;0.40;;;;;;;;;;5090533;28;20048;-59
2022/01/08 19:15:13;;;;;;;0.43;0.43;;;;;;;;;;5091475;28;20055;-59
2022/01/08 19:17:39;;;;;;;0.10;0.10;;;;;;;;;;5089359;28;20027;-59
2022/01/08 19:20:05;;;;;;;0.65;0.65;;;;;;;;;;5090854;28;20039;-59
2022/01/08 19:22:32;;;;;;;0.10;0.10;;;;;;;;;;5089601;28;20008;-60
2022/01/08 19:24:58;;;;;;;0.35;0.35;;;;;;;;;;5092249;28;20016;-58
2022/01/08 19:27:23;;;;;;;0.35;0.17;;;;;;;;;;5091164;28;20499;-58
2022/01/08 19:29:48;;;;;;;0.10;0.10;;;;;;;;;;5090100;28;20044;-59
2022/01/08 19:32:15;;;;;;;1.40;1.30;;;;;;;;;;5089476;28;20035;-59
2022/01/08 19:34:41;;;;;;;0.60;0.60;;;;;;;;;;5090324;28;20036;-60
2022/01/08 19:37:07;;;;;;;0.45;0.45;;;;;;;;;;5090102;28;20016;-59
2022/01/08 19:39:32;;;;;;;0.45;0.45;;;;;;;;;;5091850;28;20503;-58
2022/01/08 19:42:02;;;;;;;0.40;0.40;;;;;;;;;;5091012;28;20016;-60
2022/01/08 19:44:27;;;;;;;0.20;0.20;;;;;;;;;;5091934;28;20023;-60
2022/01/08 19:46:52;;;;;;;0.73;0.73;;;;;;;;;;5092782;28;20024;-60
2022/01/08 19:49:18;;;;;;;0.00;0.00;;;;;;;;;;5089770;28;20028;-64
2022/01/08 19:51:43;;;;;;;0.43;0.40;;;;;;;;;;5090693;28;20453;-62
2022/01/08 19:54:08;;;;;;;0.00;0.00;;;;;;;;;;5091018;28;20070;-62
2022/01/08 19:56:33;;;;;;;0.88;0.88;;;;;;;;;;5091033;28;20032;-66
2022/01/08 19:58:59;;;;;;;0.38;0.38;;;;;;;;;;5090246;28;20031;-61
2022/01/08 20:01:24;;;;;;;0.65;0.52;;;;;;;;;;5091260;28;20077;-63
2022/01/08 20:03:50;;;;;;;0.95;0.35;;;;;;;;;;5092313;28;20027;-61
2022/01/08 20:06:15;;;;;;;0.93;0.30;;;;;;;;;;5089118;28;20063;-62
2022/01/08 20:08:40;;;;;;;0.90;0.43;;;;;;;;;;5090115;28;20476;-64
2022/01/08 20:11:05;;;;;;;0.00;0.00;;;;;;;;;;5089980;28;20032;-64
2022/01/08 20:13:31;;;;;;;0.00;0.00;;;;;;;;;;5090108;28;20053;-64
2022/01/08 20:15:56;;;;;;;0.38;0.30;;;;;;;;;;5088573;28;20669;-60
2022/01/08 20:18:21;;;;;;;0.00;0.00;;;;;;;;;;5087940;28;20100;-60
2022/01/08 20:20:47;;;;;;;0.00;0.00;;;;;;;;;;5092088;28;20222;-60
2022/01/08 20:23:12;;;;;;;0.08;0.08;;;;;;;;;;5091119;28;20432;-60
2022/01/08 20:25:37;;;;;;;0.00;0.00;;;;;;;;;;5091741;28;20407;-61
2022/01/08 20:28:03;;;;;;;2.05;1.08;;;;;;;;;;5091930;28;20023;-61
2022/01/08 20:30:28;;;;;;;0.50;0.50;;;;;;;;;;5089173;28;20511;-61
2022/01/08 20:32:54;;;;;;;0.00;0.00;;;;;;;;;;5090902;28;20247;-58
2022/01/08 20:35:19;;;;;;;0.40;0.40;;;;;;;;;;5089531;28;20024;-58
2022/01/08 20:37:44;;;;;;;0.65;0.65;;;;;;;;;;5089731;28;20115;-59
2022/01/08 20:40:10;;;;;;;0.15;0.15;;;;;;;;;;5089310;28;20464;-61
2022/01/08 20:42:35;;;;;;;0.70;0.57;;;;;;;;;;5089717;28;20465;-59
2022/01/08 20:45:00;;;;;;;0.70;0.70;;;;;;;;;;5088916;28;20090;-60
2022/01/08 20:47:26;;;;;;;0.00;0.00;;;;;;;;;;5088675;28;20086;-59
2022/01/08 20:49:51;;;;;;;0.20;0.20;;;;;;;;;;5089773;28;20031;-59
2022/01/08 20:52:16;;;;;;;0.00;0.00;;;;;;;;;;5089818;28;20115;-60
2022/01/08 20:54:43;;;;;;;0.28;0.28;;;;;;;;;;5090955;28;20099;-59
2022/01/08 20:57:08;;;;;;;0.13;0.13;;;;;;;;;;5087583;28;20030;-59
2022/01/08 20:59:33;;;;;;;0.38;0.38;;;;;;;;;;5088900;28;20529;-60
2022/01/08 21:01:59;;;;;;;0.22;0.22;;;;;;;;;;5090403;28;20057;-59
2022/01/08 21:04:24;;;;;;;0.52;0.52;;;;;;;;;;5089066;28;20368;-59
2022/01/08 21:06:50;;;;;;;0.52;0.52;;;;;;;;;;5089575;28;20024;-59
2022/01/08 21:09:15;;;;;;;0.52;0.52;;;;;;;;;;5089986;28;20373;-59
2022/01/08 21:11:41;;;;;;;0.10;0.10;;;;;;;;;;5089918;28;20051;-60
2022/01/08 21:14:06;;;;;;;0.98;0.98;;;;;;;;;;5089552;28;20105;-59
2022/01/08 21:16:31;;;;;;;0.45;0.45;;;;;;;;;;5087891;28;20046;-59
2022/01/08 21:18:59;;;;;;;0.40;0.40;;;;;;;;;;5087884;28;20043;-59
2022/01/08 21:21:24;;;;;;;1.38;1.27;;;;;;;;;;5089180;28;20449;-60
2022/01/08 21:23:49;;;;;;;1.45;0.45;;;;;;;;;;5088740;28;20099;-60
2022/01/08 21:26:15;;;;;;;0.20;0.20;;;;;;;;;;5088980;28;20057;-60
2022/01/08 21:28:42;;;;;;;1.77;0.63;;;;;;;;;;5087622;28;21157;-59
2022/01/08 21:31:07;;;;;;;0.50;0.50;;;;;;;;;;5088652;28;20020;-59
2022/01/08 21:33:34;;;;;;;0.80;0.80;;;;;;;;;;5088736;28;20024;-59
2022/01/08 21:36:02;;;;;;;0.00;0.00;;;;;;;;;;5087372;28;20414;-59
2022/01/08 21:38:34;;;;;;;1.08;0.82;;;;;;;;;;5088442;28;20054;-60
2022/01/08 21:40:59;;;;;;;0.10;0.10;;;;;;;;;;5088486;28;20132;-59
2022/01/08 21:43:25;;;;;;;1.35;0.28;;;;;;;;;;5089103;28;20058;-59
2022/01/08 21:45:50;;;;;;;0.22;0.20;;;;;;;;;;5087144;28;20054;-59
2022/01/08 21:48:17;;;;;;;1.65;0.55;;;;;;;;;;5089161;28;20020;-59
2022/01/08 21:50:42;;;;;;;0.47;0.47;;;;;;;;;;5088940;28;20051;-59
2022/01/08 21:53:08;;;;;;;0.20;0.20;;;;;;;;;;5093584;28;20404;-60
2022/01/08 21:55:33;;;;;;;1.08;0.75;;;;;;;;;;5094248;28;20020;-60
2022/01/08 21:57:59;;;;;;;6.13;0.70;;;;;;;;;;5092286;28;20476;-60
2022/01/08 22:00:24;;;;;;;0.05;0.05;;;;;;;;;;5092776;28;20032;-59
2022/01/08 22:02:50;;;;;;;0.80;0.80;;;;;;;;;;5092437;28;20020;-59
2022/01/08 22:05:17;;;;;;;0.00;0.00;;;;;;;;;;5092656;28;20024;-60
2022/01/08 22:07:42;;;;;;;0.52;0.52;;;;;;;;;;5093916;28;20455;-60
2022/01/08 22:10:08;;;;;;;0.52;0.52;;;;;;;;;;5092567;28;20028;-60
2022/01/08 22:12:33;;;;;;;0.32;0.32;;;;;;;;;;5092672;28;20028;-60
2022/01/08 22:14:58;;;;;;;0.40;0.40;;;;;;;;;;5089220;28;20039;-61
2022/01/08 22:17:24;;;;;;;0.75;0.75;;;;;;;;;;5092343;28;20032;-60
2022/01/08 22:19:49;;;;;;;0.43;0.43;;;;;;;;;;5091782;28;20024;-59
2022/01/08 22:22:15;;;;;;;0.25;0.25;;;;;;;;;;5092290;28;20035;-60
2022/01/08 22:24:40;;;;;;;0.00;0.00;;;;;;;;;;5092035;28;20047;-59
2022/01/08 22:27:06;;;;;;;0.70;0.45;;;;;;;;;;5092191;28;20067;-60
2022/01/08 22:29:31;;;;;;;0.43;0.43;;;;;;;;;;5091644;28;20052;-60
2022/01/08 22:31:56;;;;;;;0.10;0.10;;;;;;;;;;5091901;28;20031;-59
2022/01/08 22:34:22;;;;;;;0.10;0.05;;;;;;;;;;5092248;28;20376;-59
2022/01/08 22:36:47;;;;;;;0.57;0.47;;;;;;;;;;5092129;28;20077;-60
2022/01/08 22:39:13;;;;;;;0.70;0.70;;;;;;;;;;5093496;28;20368;-60
2022/01/08 22:41:39;;;;;;;0.30;0.30;;;;;;;;;;5090276;28;20035;-60
2022/01/08 22:44:04;;;;;;;0.00;0.00;;;;;;;;;;5090308;28;20024;-59
2022/01/08 22:46:29;;;;;;;0.52;0.52;;;;;;;;;;5091378;28;20055;-60
2022/01/08 22:48:58;;;;;;;0.73;0.73;;;;;;;;;;5092359;28;20023;-60
2022/01/08 22:51:24;;;;;;;0.05;0.00;;;;;;;;;;5092067;28;20012;-59
2022/01/08 22:53:52;;;;;;;0.50;0.50;;;;;;;;;;5092309;28;20020;-59
2022/01/08 22:56:17;;;;;;;0.15;0.15;;;;;;;;;;5098749;28;20039;-59
2022/01/08 22:58:43;;;;;;;1.52;1.42;;;;;;;;;;5090358;28;20032;-60
2022/01/08 23:01:08;;;;;;;0.03;0.03;;;;;;;;;;5090314;28;20020;-59
2022/01/08 23:03:33;;;;;;;1.05;0.98;;;;;;;;;;5090954;28;20020;-60
2022/01/08 23:05:59;;;;;;;0.17;0.17;;;;;;;;;;5092817;28;20016;-60
2022/01/08 23:08:28;;;;;;;1.27;0.77;;;;;;;;;;5091465;28;20453;-60
2022/01/08 23:10:53;;;;;;;1.05;0.80;;;;;;;;;;5089779;28;20020;-59
2022/01/08 23:13:19;;;;;;;0.25;0.25;;;;;;;;;;5090932;28;20028;-60
2022/01/08 23:15:45;;;;;;;0.00;0.00;;;;;;;;;;5090728;28;20111;-60
2022/01/08 23:18:10;;;;;;;0.40;0.40;;;;;;;;;;5090763;28;20024;-60
2022/01/08 23:20:37;;;;;;;0.00;0.00;;;;;;;;;;5089378;28;20020;-60
2022/01/08 23:23:03;;;;;;;1.23;1.23;;;;;;;;;;5090602;28;20070;-59
2022/01/08 23:25:29;;;;;;;0.28;0.28;;;;;;;;;;5089304;28;20092;-59
2022/01/08 23:27:56;;;;;;;0.00;0.00;;;;;;;;;;5090197;28;20012;-59
2022/01/08 23:30:21;;;;;;;0.00;0.00;;;;;;;;;;5088972;28;20040;-59
2022/01/08 23:32:46;;;;;;;0.20;0.20;;;;;;;;;;5089777;28;20067;-59
2022/01/08 23:35:12;;;;;;;0.68;0.68;;;;;;;;;;5088393;28;20043;-60
2022/01/08 23:37:37;;;;;;;0.00;0.00;;;;;;;;;;5089556;28;20024;-70
2022/01/08 23:40:03;;;;;;;0.00;0.00;;;;;;;;;;5087563;28;20027;-71
2022/01/08 23:42:28;;;;;;;0.43;0.32;;;;;;;;;;5089153;28;20031;-70
2022/01/08 23:44:53;;;;;;;0.00;0.00;;;;;;;;;;5088562;28;20028;-70
2022/01/08 23:47:19;;;;;;;0.40;0.40;;;;;;;;;;5088213;28;20099;-70
2022/01/08 23:49:47;;;;;;;0.00;0.00;;;;;;;;;;5088936;28;20061;-71
2022/01/08 23:52:19;;;;;;;0.20;0.20;;;;;;;;;;5089306;28;20026;-71
2022/01/08 23:54:44;;;;;;;0.10;0.10;;;;;;;;;;5089287;28;20032;-70
2022/01/08 23:57:10;;;;;;;1.95;1.92;;;;;;;;;;5089007;28;20035;-71
2022/01/08 23:59:36;;;;;;;0.00;0.00;;;;;;;;;;5089144;28;20047;-70
